Search for airport 
image banner adimage banner adimage banner ad
image banner ad

CN02 - San Francisco Va Medical Center

Located in San Francisco, United States

ICAO - CN02, IATA -

Data provided by Airmate  

General information

Coordinates: N37°47'1" W122°30'24"
Elevation is 350 feet MSL.
 
View others Airports in California

Operational data

Special qualification required
Current time UTC:
Current local time:
Weather at : KSFO - San Francisco Intl ( 22 km )
METAR: KSFO 231356Z 28006KT 9SM FEW006 BKN009 13/11 A2996 RMK AO2 SLP145 T01280106
TAF: KSFO 231319Z 2313/2418 29007KT P6SM FEW006 TEMPO 2313/2315 BKN006 FM231500 29005KT P6SM FEW010 FM232100 31014KT P6SM SKC FM240400 30006KT P6SM SKC FM241200 30008KT P6SM SKC
View NOTAMs / SUP AIP / TFR affecting this airport [VIEW]
Communications frequencies: [VIEW]

Runways:

Airport contact information

Address: San Francisco United States

Satellite view of CN02